createdAt,value
2019-02-28T00:00:24.898Z,6.63
2019-02-28T00:05:24.961Z,6.81
2019-02-28T00:10:24.960Z,7
2019-02-28T00:15:24.944Z,7.13
2019-02-28T00:20:24.965Z,7.13
2019-02-28T00:25:24.905Z,7.13
2019-02-28T00:30:25.063Z,7.06
2019-02-28T00:35:24.973Z,7
2019-02-28T00:40:24.965Z,6.94
2019-02-28T00:45:24.984Z,6.75
2019-02-28T00:50:27.572Z,6.69
2019-02-28T00:55:24.932Z,6.63
2019-02-28T01:00:24.989Z,6.63
2019-02-28T01:05:24.946Z,6.5
2019-02-28T01:10:24.978Z,6.5
2019-02-28T01:15:24.960Z,6.5
2019-02-28T01:20:24.966Z,6.5
2019-02-28T01:25:24.967Z,6.44
2019-02-28T01:30:24.919Z,6.56
2019-02-28T01:35:24.997Z,6.75
2019-02-28T01:40:24.975Z,6.88
2019-02-28T01:45:25.015Z,6.94
2019-02-28T01:50:24.978Z,6.88
2019-02-28T01:55:25.018Z,6.94
2019-02-28T02:00:24.968Z,7.06
2019-02-28T02:05:25.027Z,7.06
2019-02-28T02:10:25.065Z,7
2019-02-28T02:15:24.947Z,7
2019-02-28T02:20:26.219Z,7
2019-02-28T02:25:24.984Z,6.94
2019-02-28T02:30:25.031Z,6.81
2019-02-28T02:35:25.045Z,6.75
2019-02-28T02:40:25.024Z,6.69
2019-02-28T02:45:25.068Z,6.63
2019-02-28T02:50:25.014Z,6.69
2019-02-28T02:55:28.872Z,6.69
2019-02-28T03:00:25.027Z,6.69
2019-02-28T03:05:25.019Z,6.81
2019-02-28T03:10:24.987Z,6.81
2019-02-28T03:15:27.078Z,6.81
2019-02-28T03:20:25.059Z,6.88
2019-02-28T03:25:28.074Z,6.81
2019-02-28T03:30:30.790Z,6.75
2019-02-28T03:35:24.993Z,6.81
2019-02-28T03:40:25.075Z,6.81
2019-02-28T03:45:25.033Z,6.81
2019-02-28T03:50:25.082Z,6.75
2019-02-28T03:55:25.067Z,6.69
2019-02-28T04:00:32.254Z,6.63
2019-02-28T04:05:27.909Z,6.5
2019-02-28T04:10:25.032Z,6.44
2019-02-28T04:15:25.088Z,6.38
2019-02-28T04:20:25.006Z,6.38
2019-02-28T04:25:25.119Z,6.38
2019-02-28T04:30:25.053Z,6.44
2019-02-28T04:35:25.474Z,6.44
2019-02-28T04:40:26.884Z,6.44
2019-02-28T04:45:26.107Z,6.31
2019-02-28T04:50:25.140Z,6.25
2019-02-28T04:55:25.095Z,6.19
2019-02-28T05:00:25.108Z,6.19
2019-02-28T05:05:30.075Z,6.06
2019-02-28T05:10:25.055Z,6.06
2019-02-28T05:15:25.103Z,6
2019-02-28T05:20:25.061Z,6.06
2019-02-28T05:25:25.063Z,6
2019-02-28T05:30:25.102Z,6.06
2019-02-28T05:35:26.514Z,6.06
2019-02-28T05:40:25.125Z,6.06
2019-02-28T05:45:25.139Z,6.06
2019-02-28T05:50:25.121Z,6.06
2019-02-28T05:55:25.831Z,6
2019-02-28T06:00:25.126Z,6
2019-02-28T06:05:25.148Z,6
2019-02-28T06:10:25.090Z,5.94
2019-02-28T06:15:25.101Z,5.94
2019-02-28T06:20:25.055Z,5.94
2019-02-28T06:25:25.738Z,6
2019-02-28T06:30:25.227Z,6
2019-02-28T06:35:25.122Z,6.06
2019-02-28T06:40:25.167Z,6.06
2019-02-28T06:45:25.070Z,6.13
2019-02-28T06:50:25.105Z,6.19
2019-02-28T06:55:25.155Z,6.31
2019-02-28T07:00:25.072Z,6.38
2019-02-28T07:05:26.247Z,6.63
2019-02-28T07:10:25.088Z,6.81
2019-02-28T07:15:25.126Z,6.94
2019-02-28T07:20:25.165Z,7
2019-02-28T07:25:25.130Z,7.38
2019-02-28T07:30:25.170Z,7.81
2019-02-28T07:35:25.123Z,8.44
2019-02-28T07:40:30.144Z,8.88
2019-02-28T07:45:25.088Z,9.31
2019-02-28T07:50:25.157Z,9.44
2019-02-28T07:55:27.118Z,9.56
2019-02-28T08:00:25.141Z,9.63
2019-02-28T08:05:29.590Z,9.88
2019-02-28T08:10:25.104Z,10
2019-02-28T08:15:25.192Z,10.13
2019-02-28T08:20:25.195Z,10.25
2019-02-28T08:25:25.165Z,10.5
2019-02-28T08:30:25.212Z,10.63
2019-02-28T08:35:25.127Z,10.69
2019-02-28T08:40:26.593Z,10.81
2019-02-28T08:45:25.169Z,11
2019-02-28T08:50:25.214Z,11
2019-02-28T08:55:28.511Z,11.06
2019-02-28T09:00:31.007Z,11.19
2019-02-28T09:05:26.053Z,11.5
2019-02-28T09:10:25.210Z,11.63
2019-02-28T09:15:29.713Z,11.88
2019-02-28T09:20:25.208Z,11.94
2019-02-28T09:25:26.903Z,12.19
2019-02-28T09:30:26.437Z,12.25
2019-02-28T09:35:30.197Z,12.38
2019-02-28T09:40:25.631Z,12.63
2019-02-28T09:45:25.190Z,12.81
2019-02-28T09:50:25.201Z,12.94
2019-02-28T09:55:25.252Z,13
2019-02-28T10:00:27.361Z,12.88
2019-02-28T10:05:25.201Z,13.31
2019-02-28T10:10:25.243Z,13.5
2019-02-28T10:15:25.202Z,13.5
2019-02-28T10:20:26.905Z,13.63
2019-02-28T10:25:25.206Z,13.75
2019-02-28T10:30:31.532Z,13.75
2019-02-28T10:35:25.223Z,13.81
2019-02-28T10:40:25.186Z,13.69
2019-02-28T10:45:25.260Z,13.75
2019-02-28T10:50:25.905Z,13.94
2019-02-28T10:55:25.227Z,14.19
2019-02-28T11:00:25.236Z,14.19
2019-02-28T11:05:27.334Z,14.06
2019-02-28T11:10:25.297Z,14
2019-02-28T11:15:25.239Z,14
2019-02-28T11:20:26.066Z,14
2019-02-28T11:25:25.254Z,14
2019-02-28T11:30:25.285Z,14
2019-02-28T11:35:25.278Z,14
2019-02-28T11:40:25.243Z,14
2019-02-28T11:45:25.593Z,14
2019-02-28T11:50:25.264Z,14
2019-02-28T11:55:27.077Z,14
2019-02-28T12:00:25.298Z,14
2019-02-28T12:05:25.264Z,14
2019-02-28T12:10:26.877Z,14
2019-02-28T12:15:25.284Z,14
2019-02-28T12:20:26.375Z,14
2019-02-28T12:25:25.274Z,14
2019-02-28T12:30:26.029Z,14
2019-02-28T12:35:25.273Z,14
2019-02-28T12:40:25.322Z,14
2019-02-28T12:45:25.274Z,14
2019-02-28T12:50:25.319Z,14
2019-02-28T12:55:25.320Z,14.31
2019-02-28T13:00:25.296Z,14.25
2019-02-28T13:05:25.389Z,14.19
2019-02-28T13:10:27.888Z,14.13
2019-02-28T13:15:25.257Z,14.13
2019-02-28T13:20:32.093Z,14.25
2019-02-28T13:25:25.309Z,14.06
2019-02-28T13:30:25.294Z,14.13
2019-02-28T13:35:25.386Z,14.19
2019-02-28T13:40:25.411Z,14.13
2019-02-28T13:45:25.270Z,14
2019-02-28T13:50:26.767Z,13.94
2019-02-28T13:55:25.319Z,13.94
2019-02-28T14:00:25.323Z,14
2019-02-28T14:05:25.355Z,13.94
2019-02-28T14:10:25.305Z,13.94
2019-02-28T14:15:25.406Z,13.88
2019-02-28T14:20:27.560Z,13.88
2019-02-28T14:25:25.360Z,13.81
2019-02-28T14:30:25.370Z,13.81
2019-02-28T14:35:25.294Z,13.81
2019-02-28T14:40:25.405Z,13.81
2019-02-28T14:45:25.456Z,13.69
2019-02-28T14:50:25.373Z,13.63
2019-02-28T14:55:25.338Z,13.56
2019-02-28T15:00:25.306Z,13.56
2019-02-28T15:05:25.353Z,13.5
2019-02-28T15:10:25.379Z,13.44
2019-02-28T15:15:25.346Z,13.38
2019-02-28T15:20:25.391Z,13.38
2019-02-28T15:25:25.359Z,13.19
2019-02-28T15:30:25.361Z,13.13
2019-02-28T15:35:25.409Z,13.06
2019-02-28T15:40:30.385Z,13
2019-02-28T15:45:30.359Z,12.88
2019-02-28T15:50:25.416Z,12.81
2019-02-28T15:55:25.428Z,12.75
2019-02-28T16:00:25.409Z,12.63
2019-02-28T16:05:25.425Z,12.44
2019-02-28T16:10:25.389Z,12.31
2019-02-28T16:15:25.421Z,12.19
2019-02-28T16:20:28.437Z,12
2019-02-28T16:25:25.385Z,11.75
2019-02-28T16:30:25.424Z,11.69
2019-02-28T16:35:25.395Z,11.56
2019-02-28T16:40:26.871Z,11.5
2019-02-28T16:45:25.352Z,11.31
2019-02-28T16:50:25.458Z,11.25
2019-02-28T16:55:27.412Z,11.13
2019-02-28T17:00:25.392Z,11.06
2019-02-28T17:05:27.833Z,10.94
2019-02-28T17:10:25.361Z,10.94
2019-02-28T17:15:25.476Z,10.88
2019-02-28T17:20:25.370Z,10.81
2019-02-28T17:25:25.454Z,10.75
2019-02-28T17:30:25.454Z,10.69
2019-02-28T17:35:25.418Z,10.69
2019-02-28T17:40:26.193Z,10.63
2019-02-28T17:45:25.436Z,10.5
2019-02-28T17:50:27.409Z,10.38
2019-02-28T17:55:26.875Z,10.31
2019-02-28T18:00:25.429Z,10.19
2019-02-28T18:05:30.001Z,10
2019-02-28T18:10:25.424Z,9.88
2019-02-28T18:15:25.435Z,9.81
2019-02-28T18:20:25.798Z,9.69
2019-02-28T18:25:25.435Z,9.63
2019-02-28T18:30:27.451Z,9.56
2019-02-28T18:35:25.483Z,9.63
2019-02-28T18:40:25.920Z,9.63
2019-02-28T18:45:25.437Z,9.5
2019-02-28T18:50:25.454Z,9.44
2019-02-28T18:55:34.347Z,9.38
2019-02-28T19:00:25.504Z,9.38
2019-02-28T19:05:25.962Z,9.31
2019-02-28T19:10:25.498Z,9.31
2019-02-28T19:15:25.426Z,9.31
2019-02-28T19:20:25.502Z,9.31
2019-02-28T19:25:25.502Z,9.38
2019-02-28T19:30:25.502Z,9.38
2019-02-28T19:35:25.501Z,9.38
2019-02-28T19:40:25.444Z,9.31
2019-02-28T19:45:25.485Z,9.06
2019-02-28T19:50:25.438Z,9.06
2019-02-28T19:55:25.529Z,9.06
2019-02-28T20:00:25.538Z,9
2019-02-28T20:05:25.494Z,8.88
2019-02-28T20:10:25.555Z,8.81
2019-02-28T20:15:25.502Z,8.69
2019-02-28T20:20:25.537Z,8.63
2019-02-28T20:25:25.493Z,8.5
2019-02-28T20:30:25.540Z,8.44
2019-02-28T20:35:26.722Z,8.44
2019-02-28T20:40:25.463Z,8.38
2019-02-28T20:45:25.565Z,8.31
2019-02-28T20:50:25.546Z,8.31
2019-02-28T20:55:25.553Z,8.31
2019-02-28T21:00:25.515Z,8.31
2019-02-28T21:05:25.509Z,8.25
2019-02-28T21:10:25.515Z,8.38
2019-02-28T21:15:25.477Z,8.44
2019-02-28T21:20:25.488Z,8.44
2019-02-28T21:25:25.582Z,8.38
2019-02-28T21:30:25.516Z,8.31
2019-02-28T21:35:25.560Z,8.31
2019-02-28T21:40:25.488Z,8.25
2019-02-28T21:45:25.590Z,8.25
2019-02-28T21:50:26.590Z,8.25
2019-02-28T21:55:25.543Z,8.31
2019-02-28T22:00:25.599Z,8.44
2019-02-28T22:05:25.539Z,8.56
2019-02-28T22:10:25.558Z,8.63
2019-02-28T22:15:25.507Z,8.69
2019-02-28T22:20:25.508Z,8.75
2019-02-28T22:25:25.596Z,8.88
2019-02-28T22:30:25.560Z,8.88
2019-02-28T22:35:25.550Z,8.88
2019-02-28T22:40:25.569Z,8.88
2019-02-28T22:45:25.604Z,8.88
2019-02-28T22:50:25.608Z,8.88
2019-02-28T22:55:25.568Z,8.88
2019-02-28T23:00:25.621Z,8.94
2019-02-28T23:05:25.528Z,8.94
2019-02-28T23:10:25.630Z,8.94
2019-02-28T23:15:25.609Z,8.94
2019-02-28T23:20:25.579Z,9
2019-02-28T23:25:25.595Z,9
2019-02-28T23:30:25.596Z,9.06
2019-02-28T23:35:25.635Z,9.13
2019-02-28T23:40:25.586Z,9.19
2019-02-28T23:45:25.714Z,9.19
2019-02-28T23:50:25.640Z,9.19
2019-02-28T23:55:25.591Z,9.19
